sensor_id;sensor_type;location;lat;lon;timestamp;pressure;altitude;pressure_sealevel;temperature;humidity
43450;BME280;29041;42.266;23.110;2024-03-06T00:01:05;95510.53;;;4.66;100.00
43450;BME280;29041;42.266;23.110;2024-03-06T00:03:53;95524.34;;;4.68;100.00
43450;BME280;29041;42.266;23.110;2024-03-06T00:06:40;95527.28;;;4.66;100.00
43450;BME280;29041;42.266;23.110;2024-03-06T00:09:28;95534.75;;;4.83;100.00
43450;BME280;29041;42.266;23.110;2024-03-06T00:12:15;95530.81;;;4.62;100.00
43450;BME280;29041;42.266;23.110;2024-03-06T00:15:02;95523.41;;;4.58;100.00
43450;BME280;29041;42.266;23.110;2024-03-06T00:17:51;95530.19;;;4.32;100.00
43450;BME280;29041;42.266;23.110;2024-03-06T00:20:38;95533.19;;;4.25;100.00
43450;BME280;29041;42.266;23.110;2024-03-06T00:23:26;95532.75;;;4.18;100.00
43450;BME280;29041;42.266;23.110;2024-03-06T00:26:13;95532.66;;;4.04;100.00
43450;BME280;29041;42.266;23.110;2024-03-06T00:29:00;95537.63;;;3.38;100.00
43450;BME280;29041;42.266;23.110;2024-03-06T00:31:47;95541.66;;;3.59;100.00
43450;BME280;29041;42.266;23.110;2024-03-06T00:34:36;95545.19;;;3.79;100.00
43450;BME280;29041;42.266;23.110;2024-03-06T00:37:23;95549.53;;;3.70;100.00
43450;BME280;29041;42.266;23.110;2024-03-06T00:40:12;95542.41;;;3.65;100.00
43450;BME280;29041;42.266;23.110;2024-03-06T00:42:59;95542.06;;;3.72;100.00
43450;BME280;29041;42.266;23.110;2024-03-06T00:45:46;95550.31;;;3.94;100.00
43450;BME280;29041;42.266;23.110;2024-03-06T00:48:36;95537.88;;;3.90;100.00
43450;BME280;29041;42.266;23.110;2024-03-06T00:51:26;95510.41;;;4.19;100.00
43450;BME280;29041;42.266;23.110;2024-03-06T00:54:13;95548.69;;;4.18;100.00
43450;BME280;29041;42.266;23.110;2024-03-06T00:57:00;95547.16;;;3.92;100.00
43450;BME280;29041;42.266;23.110;2024-03-06T00:59:47;95542.09;;;4.15;100.00
43450;BME280;29041;42.266;23.110;2024-03-06T01:02:34;95533.84;;;4.36;100.00
43450;BME280;29041;42.266;23.110;2024-03-06T01:05:21;95547.53;;;4.05;100.00
43450;BME280;29041;42.266;23.110;2024-03-06T01:08:10;95545.44;;;4.21;100.00
43450;BME280;29041;42.266;23.110;2024-03-06T01:10:57;95541.44;;;4.23;100.00
43450;BME280;29041;42.266;23.110;2024-03-06T01:13:44;95549.88;;;4.06;100.00
43450;BME280;29041;42.266;23.110;2024-03-06T01:16:31;95550.81;;;3.72;100.00
43450;BME280;29041;42.266;23.110;2024-03-06T01:19:18;95546.81;;;4.18;100.00
43450;BME280;29041;42.266;23.110;2024-03-06T01:22:05;95546.97;;;3.84;100.00
43450;BME280;29041;42.266;23.110;2024-03-06T01:24:54;95550.47;;;4.03;100.00
43450;BME280;29041;42.266;23.110;2024-03-06T01:27:41;95545.91;;;3.85;100.00
43450;BME280;29041;42.266;23.110;2024-03-06T01:30:28;95550.63;;;4.12;100.00
43450;BME280;29041;42.266;23.110;2024-03-06T01:33:16;95561.06;;;4.27;100.00
43450;BME280;29041;42.266;23.110;2024-03-06T01:36:03;95569.28;;;4.07;100.00
43450;BME280;29041;42.266;23.110;2024-03-06T01:38:51;95574.38;;;4.03;100.00
43450;BME280;29041;42.266;23.110;2024-03-06T01:41:44;95534.66;;;3.93;100.00
43450;BME280;29041;42.266;23.110;2024-03-06T01:44:32;95564.03;;;4.02;100.00
43450;BME280;29041;42.266;23.110;2024-03-06T01:47:20;95566.34;;;3.84;100.00
43450;BME280;29041;42.266;23.110;2024-03-06T01:50:08;95580.63;;;3.88;100.00
43450;BME280;29041;42.266;23.110;2024-03-06T01:52:56;95565.97;;;3.96;100.00
43450;BME280;29041;42.266;23.110;2024-03-06T01:55:43;95572.69;;;3.88;100.00
43450;BME280;29041;42.266;23.110;2024-03-06T01:58:34;95566.66;;;3.83;100.00
43450;BME280;29041;42.266;23.110;2024-03-06T02:01:21;95566.00;;;3.42;100.00
43450;BME280;29041;42.266;23.110;2024-03-06T02:04:11;95574.09;;;3.56;100.00
43450;BME280;29041;42.266;23.110;2024-03-06T02:06:59;95583.28;;;3.64;100.00
43450;BME280;29041;42.266;23.110;2024-03-06T02:09:46;95589.03;;;3.47;100.00
43450;BME280;29041;42.266;23.110;2024-03-06T02:12:33;95583.22;;;3.69;100.00
43450;BME280;29041;42.266;23.110;2024-03-06T02:15:24;95588.97;;;3.52;100.00
43450;BME280;29041;42.266;23.110;2024-03-06T02:18:11;95576.50;;;2.94;100.00
43450;BME280;29041;42.266;23.110;2024-03-06T02:20:59;95590.66;;;2.79;100.00
43450;BME280;29041;42.266;23.110;2024-03-06T02:23:46;95595.41;;;2.82;100.00
43450;BME280;29041;42.266;23.110;2024-03-06T02:26:34;95604.75;;;3.09;100.00
43450;BME280;29041;42.266;23.110;2024-03-06T02:29:23;95598.44;;;2.99;100.00
43450;BME280;29041;42.266;23.110;2024-03-06T02:32:12;95589.91;;;3.08;100.00
43450;BME280;29041;42.266;23.110;2024-03-06T02:35:00;95602.66;;;3.06;100.00
43450;BME280;29041;42.266;23.110;2024-03-06T02:37:49;95601.56;;;3.07;100.00
43450;BME280;29041;42.266;23.110;2024-03-06T02:40:43;95610.22;;;2.88;100.00
43450;BME280;29041;42.266;23.110;2024-03-06T02:43:30;95603.47;;;2.66;100.00
43450;BME280;29041;42.266;23.110;2024-03-06T02:46:17;95602.16;;;2.64;100.00
43450;BME280;29041;42.266;23.110;2024-03-06T02:49:05;95605.38;;;2.56;100.00
43450;BME280;29041;42.266;23.110;2024-03-06T02:51:52;95615.22;;;2.50;100.00
43450;BME280;29041;42.266;23.110;2024-03-06T02:54:42;95610.06;;;2.19;100.00
43450;BME280;29041;42.266;23.110;2024-03-06T02:57:29;95610.19;;;2.43;100.00
43450;BME280;29041;42.266;23.110;2024-03-06T03:00:17;95609.47;;;2.32;100.00
43450;BME280;29041;42.266;23.110;2024-03-06T03:03:04;95613.09;;;2.52;100.00
43450;BME280;29041;42.266;23.110;2024-03-06T03:05:51;95606.81;;;2.37;100.00
43450;BME280;29041;42.266;23.110;2024-03-06T03:08:38;95611.06;;;2.33;100.00
43450;BME280;29041;42.266;23.110;2024-03-06T03:11:27;95608.97;;;2.30;100.00
43450;BME280;29041;42.266;23.110;2024-03-06T03:14:14;95599.28;;;2.55;100.00
43450;BME280;29041;42.266;23.110;2024-03-06T03:17:01;95604.47;;;2.70;100.00
43450;BME280;29041;42.266;23.110;2024-03-06T03:19:48;95608.69;;;2.77;100.00
43450;BME280;29041;42.266;23.110;2024-03-06T03:22:36;95603.06;;;2.38;100.00
43450;BME280;29041;42.266;23.110;2024-03-06T03:25:24;95617.72;;;2.20;100.00
43450;BME280;29041;42.266;23.110;2024-03-06T03:28:12;95622.78;;;2.17;100.00
43450;BME280;29041;42.266;23.110;2024-03-06T03:31:00;95619.47;;;1.80;100.00
43450;BME280;29041;42.266;23.110;2024-03-06T03:33:47;95631.63;;;1.76;100.00
43450;BME280;29041;42.266;23.110;2024-03-06T03:36:34;95638.53;;;1.82;100.00
43450;BME280;29041;42.266;23.110;2024-03-06T03:39:24;95644.34;;;1.89;100.00
43450;BME280;29041;42.266;23.110;2024-03-06T03:42:13;95636.63;;;1.88;100.00
43450;BME280;29041;42.266;23.110;2024-03-06T03:45:01;95646.16;;;1.89;100.00
43450;BME280;29041;42.266;23.110;2024-03-06T03:47:49;95649.38;;;1.86;100.00
43450;BME280;29041;42.266;23.110;2024-03-06T03:50:36;95635.09;;;1.66;100.00
43450;BME280;29041;42.266;23.110;2024-03-06T03:53:24;95654.16;;;1.68;100.00
43450;BME280;29041;42.266;23.110;2024-03-06T03:56:11;95645.44;;;1.63;100.00
43450;BME280;29041;42.266;23.110;2024-03-06T03:58:59;95650.72;;;1.63;100.00
43450;BME280;29041;42.266;23.110;2024-03-06T04:01:50;95633.03;;;1.48;100.00
43450;BME280;29041;42.266;23.110;2024-03-06T04:04:37;95668.72;;;1.61;100.00
43450;BME280;29041;42.266;23.110;2024-03-06T04:07:24;95671.38;;;1.66;100.00
43450;BME280;29041;42.266;23.110;2024-03-06T04:10:11;95670.84;;;1.58;100.00
43450;BME280;29041;42.266;23.110;2024-03-06T04:12:58;95674.00;;;1.61;100.00
43450;BME280;29041;42.266;23.110;2024-03-06T04:15:46;95679.59;;;1.54;100.00
43450;BME280;29041;42.266;23.110;2024-03-06T04:18:35;95670.59;;;1.45;100.00
43450;BME280;29041;42.266;23.110;2024-03-06T04:21:22;95670.31;;;1.41;100.00
43450;BME280;29041;42.266;23.110;2024-03-06T04:24:09;95675.06;;;1.39;100.00
43450;BME280;29041;42.266;23.110;2024-03-06T04:26:56;95676.41;;;1.31;100.00
43450;BME280;29041;42.266;23.110;2024-03-06T04:29:47;95688.56;;;1.63;100.00
43450;BME280;29041;42.266;23.110;2024-03-06T04:32:34;95705.78;;;1.50;100.00
43450;BME280;29041;42.266;23.110;2024-03-06T04:35:23;95693.06;;;1.21;100.00
43450;BME280;29041;42.266;23.110;2024-03-06T04:38:10;95704.16;;;1.08;100.00
43450;BME280;29041;42.266;23.110;2024-03-06T04:40:57;95695.41;;;1.13;100.00
43450;BME280;29041;42.266;23.110;2024-03-06T04:43:47;95695.97;;;1.09;100.00
43450;BME280;29041;42.266;23.110;2024-03-06T04:46:36;95708.66;;;1.07;100.00
43450;BME280;29041;42.266;23.110;2024-03-06T04:49:23;95701.50;;;1.03;100.00
43450;BME280;29041;42.266;23.110;2024-03-06T04:52:12;95690.66;;;0.89;100.00
43450;BME280;29041;42.266;23.110;2024-03-06T04:54:59;95700.41;;;0.88;100.00
43450;BME280;29041;42.266;23.110;2024-03-06T04:57:49;95705.50;;;1.16;100.00
43450;BME280;29041;42.266;23.110;2024-03-06T05:00:38;95687.50;;;1.07;100.00
43450;BME280;29041;42.266;23.110;2024-03-06T05:03:26;95685.63;;;0.98;100.00
43450;BME280;29041;42.266;23.110;2024-03-06T05:06:13;95717.13;;;1.25;100.00
43450;BME280;29041;42.266;23.110;2024-03-06T05:09:04;95716.84;;;1.11;100.00
43450;BME280;29041;42.266;23.110;2024-03-06T05:11:51;95709.72;;;1.12;100.00
43450;BME280;29041;42.266;23.110;2024-03-06T05:14:38;95726.09;;;1.08;100.00
43450;BME280;29041;42.266;23.110;2024-03-06T05:17:25;95727.44;;;1.06;100.00
43450;BME280;29041;42.266;23.110;2024-03-06T05:20:14;95720.03;;;1.08;100.00
43450;BME280;29041;42.266;23.110;2024-03-06T05:23:02;95730.59;;;1.18;100.00
43450;BME280;29041;42.266;23.110;2024-03-06T05:25:51;95739.88;;;1.10;100.00
43450;BME280;29041;42.266;23.110;2024-03-06T05:28:38;95739.81;;;1.05;100.00
43450;BME280;29041;42.266;23.110;2024-03-06T05:31:25;95736.63;;;0.88;100.00
43450;BME280;29041;42.266;23.110;2024-03-06T05:34:12;95741.66;;;0.94;100.00
43450;BME280;29041;42.266;23.110;2024-03-06T05:36:59;95737.69;;;0.92;100.00
43450;BME280;29041;42.266;23.110;2024-03-06T05:39:47;95744.06;;;1.06;100.00
43450;BME280;29041;42.266;23.110;2024-03-06T05:42:35;95743.00;;;1.07;100.00
43450;BME280;29041;42.266;23.110;2024-03-06T05:45:22;95746.19;;;1.15;100.00
43450;BME280;29041;42.266;23.110;2024-03-06T05:48:11;95745.69;;;1.18;100.00
43450;BME280;29041;42.266;23.110;2024-03-06T05:50:58;95724.28;;;1.35;100.00
43450;BME280;29041;42.266;23.110;2024-03-06T05:53:45;95756.06;;;1.66;100.00
43450;BME280;29041;42.266;23.110;2024-03-06T05:56:32;95762.38;;;1.90;100.00
43450;BME280;29041;42.266;23.110;2024-03-06T05:59:21;95734.34;;;1.89;100.00
43450;BME280;29041;42.266;23.110;2024-03-06T06:02:10;95761.06;;;2.14;100.00
43450;BME280;29041;42.266;23.110;2024-03-06T06:04:58;95769.50;;;2.26;100.00
43450;BME280;29041;42.266;23.110;2024-03-06T06:07:45;95757.34;;;2.20;100.00
43450;BME280;29041;42.266;23.110;2024-03-06T06:10:32;95743.69;;;2.63;100.00
43450;BME280;29041;42.266;23.110;2024-03-06T06:13:20;95754.31;;;2.63;100.00
43450;BME280;29041;42.266;23.110;2024-03-06T06:16:09;95766.84;;;3.07;100.00
43450;BME280;29041;42.266;23.110;2024-03-06T06:18:56;95770.00;;;3.54;100.00
43450;BME280;29041;42.266;23.110;2024-03-06T06:21:43;95773.81;;;4.12;100.00
43450;BME280;29041;42.266;23.110;2024-03-06T06:24:32;95769.34;;;7.53;100.00
43450;BME280;29041;42.266;23.110;2024-03-06T06:27:19;95768.44;;;7.58;100.00
43450;BME280;29041;42.266;23.110;2024-03-06T06:30:07;95764.97;;;8.25;100.00
43450;BME280;29041;42.266;23.110;2024-03-06T06:32:59;95764.59;;;8.18;100.00
43450;BME280;29041;42.266;23.110;2024-03-06T06:35:46;95764.84;;;8.62;100.00
43450;BME280;29041;42.266;23.110;2024-03-06T06:38:33;95769.97;;;8.81;100.00
43450;BME280;29041;42.266;23.110;2024-03-06T06:41:20;95756.81;;;10.08;100.00
43450;BME280;29041;42.266;23.110;2024-03-06T06:44:08;95739.72;;;11.16;93.56
43450;BME280;29041;42.266;23.110;2024-03-06T06:46:56;95731.91;;;12.20;86.41
43450;BME280;29041;42.266;23.110;2024-03-06T06:49:44;95736.06;;;11.63;85.87
43450;BME280;29041;42.266;23.110;2024-03-06T06:52:31;95703.81;;;13.58;81.37
43450;BME280;29041;42.266;23.110;2024-03-06T06:55:19;95732.00;;;12.58;79.18
43450;BME280;29041;42.266;23.110;2024-03-06T06:58:08;95738.25;;;13.24;79.50
43450;BME280;29041;42.266;23.110;2024-03-06T07:00:55;95734.34;;;12.59;79.68
43450;BME280;29041;42.266;23.110;2024-03-06T07:03:43;95737.03;;;11.37;83.10
43450;BME280;29041;42.266;23.110;2024-03-06T07:06:34;95740.06;;;12.58;80.00
43450;BME280;29041;42.266;23.110;2024-03-06T07:09:21;95745.69;;;13.14;79.23
43450;BME280;29041;42.266;23.110;2024-03-06T07:12:10;95736.72;;;12.73;78.07
43450;BME280;29041;42.266;23.110;2024-03-06T07:14:58;95720.69;;;13.83;75.35
43450;BME280;29041;42.266;23.110;2024-03-06T07:17:45;95723.97;;;14.81;69.39
43450;BME280;29041;42.266;23.110;2024-03-06T07:20:33;95710.75;;;16.72;59.99
43450;BME280;29041;42.266;23.110;2024-03-06T07:23:21;95716.69;;;16.35;58.68
43450;BME280;29041;42.266;23.110;2024-03-06T07:26:08;95718.28;;;14.38;63.06
43450;BME280;29041;42.266;23.110;2024-03-06T07:28:55;95721.47;;;16.18;58.31
43450;BME280;29041;42.266;23.110;2024-03-06T07:31:44;95731.41;;;14.24;65.28
43450;BME280;29041;42.266;23.110;2024-03-06T07:34:31;95724.84;;;15.01;65.16
43450;BME280;29041;42.266;23.110;2024-03-06T07:37:18;95729.06;;;13.12;71.45
43450;BME280;29041;42.266;23.110;2024-03-06T07:40:09;95728.84;;;14.43;66.86
43450;BME280;29041;42.266;23.110;2024-03-06T07:42:56;95724.56;;;14.42;67.28
43450;BME280;29041;42.266;23.110;2024-03-06T07:45:43;95724.88;;;13.80;72.33
43450;BME280;29041;42.266;23.110;2024-03-06T07:48:30;95728.28;;;13.77;72.52
43450;BME280;29041;42.266;23.110;2024-03-06T07:51:18;95711.06;;;14.90;67.91
43450;BME280;29041;42.266;23.110;2024-03-06T07:54:05;95707.97;;;16.92;61.10
43450;BME280;29041;42.266;23.110;2024-03-06T07:56:53;95701.56;;;15.71;65.14
43450;BME280;29041;42.266;23.110;2024-03-06T07:59:40;95713.47;;;18.17;56.87
43450;BME280;29041;42.266;23.110;2024-03-06T08:02:27;95692.59;;;19.18;54.89
43450;BME280;29041;42.266;23.110;2024-03-06T08:05:15;95713.81;;;16.24;63.86
43450;BME280;29041;42.266;23.110;2024-03-06T08:08:04;95713.66;;;17.98;57.75
43450;BME280;29041;42.266;23.110;2024-03-06T08:10:51;95712.88;;;17.67;58.00
43450;BME280;29041;42.266;23.110;2024-03-06T08:13:40;95705.31;;;19.07;53.91
43450;BME280;29041;42.266;23.110;2024-03-06T08:16:27;95724.19;;;18.03;57.91
43450;BME280;29041;42.266;23.110;2024-03-06T08:19:15;95707.28;;;16.06;62.49
43450;BME280;29041;42.266;23.110;2024-03-06T08:22:03;95695.31;;;17.00;60.01
43450;BME280;29041;42.266;23.110;2024-03-06T08:24:50;95700.47;;;19.38;53.16
43450;BME280;29041;42.266;23.110;2024-03-06T08:27:38;95700.94;;;19.55;52.16
43450;BME280;29041;42.266;23.110;2024-03-06T08:30:27;95696.94;;;19.34;54.32
43450;BME280;29041;42.266;23.110;2024-03-06T08:33:16;95687.41;;;19.73;53.05
43450;BME280;29041;42.266;23.110;2024-03-06T08:36:04;95691.53;;;21.13;48.64
43450;BME280;29041;42.266;23.110;2024-03-06T08:38:51;95701.59;;;17.34;56.90
43450;BME280;29041;42.266;23.110;2024-03-06T08:41:38;95697.97;;;18.18;57.46
43450;BME280;29041;42.266;23.110;2024-03-06T08:44:25;95679.00;;;16.73;60.52
43450;BME280;29041;42.266;23.110;2024-03-06T08:47:15;95686.91;;;17.35;57.89
43450;BME280;29041;42.266;23.110;2024-03-06T08:50:02;95687.66;;;18.83;54.69
43450;BME280;29041;42.266;23.110;2024-03-06T08:52:50;95682.94;;;20.38;49.49
43450;BME280;29041;42.266;23.110;2024-03-06T08:55:38;95691.38;;;17.85;54.92
43450;BME280;29041;42.266;23.110;2024-03-06T08:58:25;95692.13;;;17.51;58.79
43450;BME280;29041;42.266;23.110;2024-03-06T09:01:12;95698.72;;;16.23;62.20
43450;BME280;29041;42.266;23.110;2024-03-06T09:04:01;95690.44;;;16.16;61.10
43450;BME280;29041;42.266;23.110;2024-03-06T09:06:48;95688.38;;;18.31;55.12
43450;BME280;29041;42.266;23.110;2024-03-06T09:09:36;95682.13;;;20.34;49.09
43450;BME280;29041;42.266;23.110;2024-03-06T09:12:23;95677.47;;;17.25;55.75
43450;BME280;29041;42.266;23.110;2024-03-06T09:15:11;95684.06;;;16.28;59.03
43450;BME280;29041;42.266;23.110;2024-03-06T09:17:58;95690.97;;;16.95;58.21
43450;BME280;29041;42.266;23.110;2024-03-06T09:20:47;95674.19;;;16.62;60.37
43450;BME280;29041;42.266;23.110;2024-03-06T09:23:34;95685.94;;;16.24;59.84
43450;BME280;29041;42.266;23.110;2024-03-06T09:26:21;95674.91;;;14.47;67.70
43450;BME280;29041;42.266;23.110;2024-03-06T09:29:08;95665.22;;;14.78;67.25
43450;BME280;29041;42.266;23.110;2024-03-06T09:31:55;95674.69;;;15.04;66.41
43450;BME280;29041;42.266;23.110;2024-03-06T09:34:43;95678.78;;;15.33;65.60
43450;BME280;29041;42.266;23.110;2024-03-06T09:37:31;95677.50;;;15.27;64.51
43450;BME280;29041;42.266;23.110;2024-03-06T09:40:23;95671.66;;;14.09;67.71
43450;BME280;29041;42.266;23.110;2024-03-06T09:43:10;95668.22;;;13.80;71.38
43450;BME280;29041;42.266;23.110;2024-03-06T09:45:57;95665.97;;;15.50;64.42
43450;BME280;29041;42.266;23.110;2024-03-06T09:48:46;95660.94;;;15.48;63.24
43450;BME280;29041;42.266;23.110;2024-03-06T09:51:34;95651.09;;;15.20;64.55
43450;BME280;29041;42.266;23.110;2024-03-06T09:54:23;95660.09;;;14.57;65.22
43450;BME280;29041;42.266;23.110;2024-03-06T09:57:12;95663.56;;;15.84;61.31
43450;BME280;29041;42.266;23.110;2024-03-06T10:00:01;95656.88;;;15.78;61.89
43450;BME280;29041;42.266;23.110;2024-03-06T10:02:52;95641.53;;;14.55;65.61
43450;BME280;29041;42.266;23.110;2024-03-06T10:05:41;95655.06;;;15.46;63.30
43450;BME280;29041;42.266;23.110;2024-03-06T10:08:29;95643.41;;;15.22;63.49
43450;BME280;29041;42.266;23.110;2024-03-06T10:11:19;95636.84;;;17.02;57.68
43450;BME280;29041;42.266;23.110;2024-03-06T10:14:06;95639.09;;;16.96;58.24
43450;BME280;29041;42.266;23.110;2024-03-06T10:16:54;95643.19;;;16.13;60.11
43450;BME280;29041;42.266;23.110;2024-03-06T10:19:42;95641.78;;;15.37;60.71
43450;BME280;29041;42.266;23.110;2024-03-06T10:22:36;95641.06;;;17.00;57.76
43450;BME280;29041;42.266;23.110;2024-03-06T10:25:23;95623.94;;;16.69;58.34
43450;BME280;29041;42.266;23.110;2024-03-06T10:28:13;95631.88;;;15.65;62.60
43450;BME280;29041;42.266;23.110;2024-03-06T10:31:03;95618.41;;;16.34;58.63
43450;BME280;29041;42.266;23.110;2024-03-06T10:33:53;95597.94;;;15.09;62.14
43450;BME280;29041;42.266;23.110;2024-03-06T10:36:40;95609.75;;;15.39;62.62
43450;BME280;29041;42.266;23.110;2024-03-06T10:39:30;95611.00;;;16.08;59.99
43450;BME280;29041;42.266;23.110;2024-03-06T10:42:17;95592.09;;;18.29;52.89
43450;BME280;29041;42.266;23.110;2024-03-06T10:45:08;95606.88;;;15.52;59.91
43450;BME280;29041;42.266;23.110;2024-03-06T10:48:00;95602.69;;;16.44;57.61
43450;BME280;29041;42.266;23.110;2024-03-06T10:50:49;95601.19;;;17.31;55.69
43450;BME280;29041;42.266;23.110;2024-03-06T10:53:37;95597.38;;;17.05;53.66
43450;BME280;29041;42.266;23.110;2024-03-06T10:56:25;95585.53;;;16.36;57.45
43450;BME280;29041;42.266;23.110;2024-03-06T10:59:13;95583.44;;;17.74;51.44
43450;BME280;29041;42.266;23.110;2024-03-06T11:02:03;95577.66;;;19.61;48.33
43450;BME280;29041;42.266;23.110;2024-03-06T11:04:51;95567.53;;;18.74;49.81
43450;BME280;29041;42.266;23.110;2024-03-06T11:07:38;95568.78;;;16.84;55.99
43450;BME280;29041;42.266;23.110;2024-03-06T11:10:32;95567.88;;;16.73;55.01
43450;BME280;29041;42.266;23.110;2024-03-06T11:13:23;95560.78;;;17.22;52.30
43450;BME280;29041;42.266;23.110;2024-03-06T11:16:11;95558.47;;;17.24;52.32
43450;BME280;29041;42.266;23.110;2024-03-06T11:19:06;95551.59;;;17.71;50.73
43450;BME280;29041;42.266;23.110;2024-03-06T11:21:54;95537.75;;;17.08;52.58
43450;BME280;29041;42.266;23.110;2024-03-06T11:24:41;95549.88;;;18.42;49.25
43450;BME280;29041;42.266;23.110;2024-03-06T11:27:28;95528.69;;;18.10;49.82
43450;BME280;29041;42.266;23.110;2024-03-06T11:30:19;95535.97;;;16.89;51.77
43450;BME280;29041;42.266;23.110;2024-03-06T11:33:12;95526.03;;;18.80;48.78
43450;BME280;29041;42.266;23.110;2024-03-06T11:36:20;95511.88;;;19.30;46.55
43450;BME280;29041;42.266;23.110;2024-03-06T11:39:08;95506.50;;;18.64;46.30
43450;BME280;29041;42.266;23.110;2024-03-06T11:41:55;95511.31;;;18.26;47.30
43450;BME280;29041;42.266;23.110;2024-03-06T11:44:53;95502.50;;;19.21;46.19
43450;BME280;29041;42.266;23.110;2024-03-06T11:47:59;95493.63;;;19.60;44.94
43450;BME280;29041;42.266;23.110;2024-03-06T11:50:46;95490.44;;;19.22;43.86
43450;BME280;29041;42.266;23.110;2024-03-06T11:53:35;95501.78;;;18.50;45.10
43450;BME280;29041;42.266;23.110;2024-03-06T11:56:25;95502.81;;;17.03;47.98
43450;BME280;29041;42.266;23.110;2024-03-06T11:59:12;95489.84;;;16.28;51.55
43450;BME280;29041;42.266;23.110;2024-03-06T12:02:00;95471.72;;;18.95;45.40
43450;BME280;29041;42.266;23.110;2024-03-06T12:04:48;95464.94;;;18.56;46.22
43450;BME280;29041;42.266;23.110;2024-03-06T12:07:45;95467.88;;;19.10;43.70
43450;BME280;29041;42.266;23.110;2024-03-06T12:10:36;95471.38;;;19.22;42.80
43450;BME280;29041;42.266;23.110;2024-03-06T12:13:24;95464.09;;;19.98;41.86
43450;BME280;29041;42.266;23.110;2024-03-06T12:16:12;95462.31;;;18.78;43.42
43450;BME280;29041;42.266;23.110;2024-03-06T12:18:59;95456.50;;;21.63;37.81
43450;BME280;29041;42.266;23.110;2024-03-06T12:21:47;95449.88;;;22.52;35.64
43450;BME280;29041;42.266;23.110;2024-03-06T12:24:34;95446.78;;;20.84;38.05
43450;BME280;29041;42.266;23.110;2024-03-06T12:27:23;95447.59;;;20.74;37.48
43450;BME280;29041;42.266;23.110;2024-03-06T12:30:11;95443.38;;;20.51;38.04
43450;BME280;29041;42.266;23.110;2024-03-06T12:32:59;95442.91;;;20.71;37.61
43450;BME280;29041;42.266;23.110;2024-03-06T12:36:02;95442.97;;;21.42;36.00
43450;BME280;29041;42.266;23.110;2024-03-06T12:38:54;95441.91;;;19.89;37.88
43450;BME280;29041;42.266;23.110;2024-03-06T12:41:41;95451.53;;;18.99;37.35
43450;BME280;29041;42.266;23.110;2024-03-06T12:44:30;95450.63;;;18.74;39.18
43450;BME280;29041;42.266;23.110;2024-03-06T12:47:17;95459.03;;;17.01;42.63
43450;BME280;29041;42.266;23.110;2024-03-06T12:50:04;95462.22;;;17.97;40.31
43450;BME280;29041;42.266;23.110;2024-03-06T12:52:53;95460.91;;;16.97;43.52
43450;BME280;29041;42.266;23.110;2024-03-06T12:55:43;95452.88;;;15.86;45.14
43450;BME280;29041;42.266;23.110;2024-03-06T12:58:31;95464.53;;;15.90;50.05
43450;BME280;29041;42.266;23.110;2024-03-06T13:01:22;95460.94;;;16.67;56.52
43450;BME280;29041;42.266;23.110;2024-03-06T13:04:09;95485.97;;;17.21;60.26
43450;BME280;29041;42.266;23.110;2024-03-06T13:06:56;95498.09;;;14.60;77.58
43450;BME280;29041;42.266;23.110;2024-03-06T13:09:44;95498.28;;;14.16;83.00
43450;BME280;29041;42.266;23.110;2024-03-06T13:12:31;95508.28;;;12.50;93.61
43450;BME280;29041;42.266;23.110;2024-03-06T13:15:18;95510.63;;;12.52;100.00
43450;BME280;29041;42.266;23.110;2024-03-06T13:18:07;95520.53;;;11.98;92.76
43450;BME280;29041;42.266;23.110;2024-03-06T13:20:54;95498.00;;;11.90;100.00
43450;BME280;29041;42.266;23.110;2024-03-06T13:23:44;95493.63;;;12.11;100.00
43450;BME280;29041;42.266;23.110;2024-03-06T13:26:31;95510.50;;;11.62;100.00
43450;BME280;29041;42.266;23.110;2024-03-06T13:29:18;95497.25;;;12.02;100.00
43450;BME280;29041;42.266;23.110;2024-03-06T13:32:06;95494.72;;;11.85;100.00
43450;BME280;29041;42.266;23.110;2024-03-06T13:34:54;95477.69;;;12.71;94.72
43450;BME280;29041;42.266;23.110;2024-03-06T13:37:45;95492.72;;;11.94;95.68
43450;BME280;29041;42.266;23.110;2024-03-06T13:40:32;95504.03;;;11.87;94.25
43450;BME280;29041;42.266;23.110;2024-03-06T13:43:19;95488.00;;;12.28;92.34
43450;BME280;29041;42.266;23.110;2024-03-06T13:46:09;95496.31;;;13.21;85.94
43450;BME280;29041;42.266;23.110;2024-03-06T13:48:56;95475.94;;;14.35;81.57
43450;BME280;29041;42.266;23.110;2024-03-06T13:51:44;95482.19;;;14.39;79.21
43450;BME280;29041;42.266;23.110;2024-03-06T13:54:31;95474.91;;;13.88;74.43
43450;BME280;29041;42.266;23.110;2024-03-06T13:57:18;95487.50;;;14.00;73.38
43450;BME280;29041;42.266;23.110;2024-03-06T14:00:08;95490.06;;;14.28;75.65
43450;BME280;29041;42.266;23.110;2024-03-06T14:02:58;95488.91;;;14.65;79.73
43450;BME280;29041;42.266;23.110;2024-03-06T14:05:45;95490.22;;;14.71;78.72
43450;BME280;29041;42.266;23.110;2024-03-06T14:08:34;95496.91;;;14.06;82.43
43450;BME280;29041;42.266;23.110;2024-03-06T14:11:21;95501.25;;;13.47;76.57
43450;BME280;29041;42.266;23.110;2024-03-06T14:14:08;95488.66;;;13.51;73.27
43450;BME280;29041;42.266;23.110;2024-03-06T14:16:56;95495.09;;;13.78;73.63
43450;BME280;29041;42.266;23.110;2024-03-06T14:19:44;95500.19;;;12.50;99.40
43450;BME280;29041;42.266;23.110;2024-03-06T14:22:31;95499.00;;;12.11;100.00
43450;BME280;29041;42.266;23.110;2024-03-06T14:25:20;95507.84;;;11.86;100.00
43450;BME280;29041;42.266;23.110;2024-03-06T14:28:07;95511.88;;;11.68;100.00
43450;BME280;29041;42.266;23.110;2024-03-06T14:30:54;95514.16;;;12.28;99.56
43450;BME280;29041;42.266;23.110;2024-03-06T14:33:41;95507.66;;;13.26;90.12
43450;BME280;29041;42.266;23.110;2024-03-06T14:36:29;95504.84;;;13.51;80.14
43450;BME280;29041;42.266;23.110;2024-03-06T14:39:16;95475.66;;;13.25;79.46